Time;durP1;ratioP1;P1;durP2;ratioP2;P2;SDS_P1;SDS_P2;PMS_P1;PMS_P2;Temp;Humidity;BMP_temperature;BMP_pressure;BME280_temperature;BME280_humidity;BME280_pressure;Samples;Min_cycle;Max_cycle;Signal;HPM_P1;HPM_P2
2023/09/08 00:01:19;;;;;;;5.72;5.20;;;21.50;1.00;;;;;;5010048;28;20224;-83
2023/09/08 00:03:47;;;;;;;8.15;5.82;;;21.50;1.00;;;;;;4999885;28;20220;-84
2023/09/08 00:06:14;;;;;;;5.97;5.38;;;21.60;1.00;;;;;;5016936;28;20222;-84
2023/09/08 00:08:43;;;;;;;7.78;5.68;;;21.60;1.00;;;;;;5018168;28;20204;-84
2023/09/08 00:11:10;;;;;;;6.75;6.05;;;21.50;1.00;;;;;;5022195;28;20228;-84
2023/09/08 00:13:39;;;;;;;6.40;5.80;;;21.30;1.00;;;;;;5035695;28;20203;-84
2023/09/08 00:16:09;;;;;;;6.18;5.63;;;21.50;1.00;;;;;;5017160;28;20211;-84
2023/09/08 00:18:38;;;;;;;6.03;5.45;;;21.50;1.00;;;;;;5025139;28;20569;-84
2023/09/08 00:21:06;;;;;;;8.40;5.75;;;21.50;1.00;;;;;;5022415;28;20233;-84
2023/09/08 00:23:33;;;;;;;6.13;5.50;;;21.40;1.00;;;;;;5003214;28;20204;-84
2023/09/08 00:26:01;;;;;;;6.40;5.88;;;21.30;18.30;;;;;;5016074;28;20231;-84
2023/09/08 00:28:28;;;;;;;6.32;5.63;;;21.20;60.10;;;;;;5004157;28;20200;-84
2023/09/08 00:30:55;;;;;;;7.90;5.53;;;21.00;99.90;;;;;;5015212;28;20223;-84
2023/09/08 00:33:23;;;;;;;7.13;6.43;;;21.00;99.90;;;;;;5014418;28;20204;-84
2023/09/08 00:35:53;;;;;;;7.28;5.95;;;20.80;99.90;;;;;;5020682;28;20188;-84
2023/09/08 00:38:20;;;;;;;7.15;5.90;;;20.70;99.90;;;;;;5019347;28;20203;-84
2023/09/08 00:40:48;;;;;;;6.93;6.05;;;20.70;1.00;;;;;;5015367;28;20216;-84
2023/09/08 00:43:15;;;;;;;7.07;5.30;;;20.70;1.00;;;;;;5022820;28;20575;-83
2023/09/08 00:45:44;;;;;;;7.05;5.88;;;20.60;1.00;;;;;;5031357;28;20605;-84
2023/09/08 00:48:13;;;;;;;5.78;5.28;;;20.60;1.00;;;;;;5016544;28;20199;-84
2023/09/08 00:50:41;;;;;;;6.03;5.43;;;20.70;99.90;;;;;;5007489;28;20227;-84
2023/09/08 00:53:11;;;;;;;6.00;5.50;;;20.80;1.00;;;;;;5004594;28;20208;-84
2023/09/08 00:55:41;;;;;;;9.55;6.38;;;20.70;94.70;;;;;;5011933;28;20196;-84
2023/09/08 00:58:09;;;;;;;6.68;6.13;;;20.80;1.00;;;;;;5015733;28;20202;-84
2023/09/08 01:00:36;;;;;;;7.28;6.00;;;20.80;1.00;;;;;;5015042;28;20227;-84
2023/09/08 01:03:04;;;;;;;7.63;6.10;;;20.60;1.00;;;;;;5007774;28;20303;-84
2023/09/08 01:05:33;;;;;;;6.30;5.70;;;20.60;9.50;;;;;;5014578;28;20220;-84
2023/09/08 01:08:02;;;;;;;8.40;6.40;;;20.50;99.90;;;;;;5013477;28;20208;-84
2023/09/08 01:10:31;;;;;;;6.93;6.18;;;20.50;99.90;;;;;;5001063;28;20233;-84
2023/09/08 01:12:59;;;;;;;6.35;5.72;;;20.50;1.00;;;;;;5001287;28;20200;-84
2023/09/08 01:15:26;;;;;;;6.45;5.78;;;20.40;99.90;;;;;;5006788;28;20193;-84
2023/09/08 01:17:55;;;;;;;6.43;5.82;;;20.30;1.00;;;;;;5004789;28;20212;-84
2023/09/08 01:20:25;;;;;;;7.05;6.22;;;20.40;1.00;;;;;;5002970;28;20227;-84
2023/09/08 01:23:12;;;;;;;6.70;6.10;;;20.50;99.90;;;;;;5010720;28;20200;-84
2023/09/08 01:25:47;;;;;;;6.63;6.05;;;20.70;99.90;;;;;;5027016;28;20216;-84
2023/09/08 01:28:15;;;;;;;6.60;5.93;;;20.90;1.00;;;;;;5027517;28;20213;-84
2023/09/08 01:30:43;;;;;;;6.85;6.20;;;21.00;1.00;;;;;;5010973;28;20225;-84
2023/09/08 01:33:11;;;;;;;6.75;6.15;;;21.10;1.00;;;;;;5008401;28;20197;-84
2023/09/08 01:35:39;;;;;;;6.45;5.85;;;21.00;1.00;;;;;;5017249;28;20208;-84
2023/09/08 01:38:06;;;;;;;8.35;6.32;;;20.90;1.00;;;;;;5036520;28;20200;-84
2023/09/08 01:40:34;;;;;;;6.53;5.85;;;20.80;1.00;;;;;;5015548;28;20227;-84
2023/09/08 01:43:03;;;;;;;6.25;5.65;;;20.80;99.90;;;;;;5007867;28;20200;-84
2023/09/08 01:45:30;;;;;;;6.65;6.05;;;20.80;99.90;;;;;;5000123;28;20217;-84
2023/09/08 01:47:58;;;;;;;7.45;6.55;;;20.80;1.00;;;;;;4999612;28;20205;-84
2023/09/08 01:50:27;;;;;;;6.80;6.07;;;20.90;99.90;;;;;;5011110;28;20216;-84
2023/09/08 01:52:54;;;;;;;6.78;6.18;;;20.70;99.90;;;;;;5006038;28;20216;-84
2023/09/08 01:55:23;;;;;;;8.32;6.85;;;20.70;99.90;;;;;;5004214;28;20212;-84
2023/09/08 01:57:51;;;;;;;7.18;6.38;;;20.50;1.00;;;;;;4997342;28;20562;-84
2023/09/08 02:00:20;;;;;;;6.53;5.93;;;20.40;99.90;;;;;;4997292;28;20203;-84
2023/09/08 02:02:47;;;;;;;7.68;6.95;;;20.30;99.90;;;;;;5019925;28;20674;-84
2023/09/08 02:05:15;;;;;;;7.38;6.68;;;20.20;99.90;;;;;;5010252;28;20196;-84
2023/09/08 02:07:43;;;;;;;7.82;6.35;;;20.00;1.00;;;;;;5015179;28;20568;-84
2023/09/08 02:10:11;;;;;;;6.68;6.00;;;20.00;99.90;;;;;;5018908;28;20212;-84
2023/09/08 02:12:38;;;;;;;6.57;5.97;;;20.20;99.90;;;;;;5029602;28;20218;-84
2023/09/08 02:15:08;;;;;;;6.85;6.18;;;20.30;52.50;;;;;;5001053;28;20211;-84
2023/09/08 02:17:37;;;;;;;7.43;6.72;;;20.40;97.60;;;;;;5003380;28;20699;-84
2023/09/08 02:20:06;;;;;;;8.27;6.78;;;20.50;14.50;;;;;;5015877;28;20208;-84
2023/09/08 02:22:33;;;;;;;7.07;6.40;;;20.50;1.00;;;;;;5030285;28;20214;-84
2023/09/08 02:25:00;;;;;;;7.88;7.18;;;20.50;1.00;;;;;;4999524;28;20208;-84
2023/09/08 02:27:28;;;;;;;7.03;6.43;;;20.50;65.90;;;;;;5012211;28;20713;-84
2023/09/08 02:29:56;;;;;;;8.95;6.43;;;20.30;99.90;;;;;;4993822;28;20197;-84
2023/09/08 02:32:24;;;;;;;6.70;6.10;;;20.30;99.90;;;;;;5006195;28;20231;-84
2023/09/08 02:34:53;;;;;;;7.78;5.65;;;20.20;99.90;;;;;;5013199;28;20210;-84
2023/09/08 02:37:21;;;;;;;7.60;6.32;;;20.10;1.00;;;;;;5001753;28;20195;-84
2023/09/08 02:39:48;;;;;;;8.27;6.03;;;20.10;1.00;;;;;;5000824;28;20204;-84
2023/09/08 02:42:16;;;;;;;6.30;5.70;;;20.10;99.90;;;;;;4996616;28;20231;-83
2023/09/08 02:44:44;;;;;;;7.50;6.35;;;20.10;99.90;;;;;;4992127;28;20207;-84
2023/09/08 02:47:13;;;;;;;7.47;6.32;;;20.00;1.00;;;;;;4981775;28;20274;-84
2023/09/08 02:49:43;;;;;;;7.22;6.53;;;20.00;1.00;;;;;;5003206;28;20200;-84
2023/09/08 02:52:12;;;;;;;6.47;5.88;;;19.90;1.00;;;;;;5014473;28;20228;-84
2023/09/08 02:54:40;;;;;;;6.70;6.10;;;19.90;1.00;;;;;;5013922;28;20195;-84
2023/09/08 02:57:08;;;;;;;7.57;6.53;;;19.80;99.90;;;;;;4998239;28;20201;-84
2023/09/08 02:59:35;;;;;;;6.93;6.32;;;19.80;1.00;;;;;;5003504;28;20200;-84
2023/09/08 03:02:03;;;;;;;6.88;6.25;;;19.70;99.90;;;;;;5007260;28;20227;-84
2023/09/08 03:04:30;;;;;;;6.25;5.75;;;19.60;99.90;;;;;;5002590;28;20200;-84
2023/09/08 03:06:58;;;;;;;7.38;6.68;;;19.60;1.00;;;;;;4995745;28;20690;-84
2023/09/08 03:09:27;;;;;;;6.68;6.15;;;19.60;1.00;;;;;;5003842;28;20203;-84
2023/09/08 03:11:55;;;;;;;8.52;6.20;;;19.80;1.00;;;;;;5001732;28;20232;-84
2023/09/08 03:14:22;;;;;;;7.22;6.63;;;19.90;1.00;;;;;;5004666;28;20208;-84
2023/09/08 03:16:50;;;;;;;8.13;6.55;;;19.90;1.00;;;;;;5018484;28;20192;-84
2023/09/08 03:19:17;;;;;;;6.55;6.00;;;19.90;1.00;;;;;;5006562;28;20212;-83
2023/09/08 03:21:45;;;;;;;7.28;6.65;;;19.90;1.00;;;;;;5012794;28;20590;-84
2023/09/08 03:24:13;;;;;;;7.35;6.05;;;20.00;99.90;;;;;;5004166;28;20211;-84
2023/09/08 03:26:42;;;;;;;7.47;6.75;;;20.10;99.90;;;;;;5002661;28;20235;-84
2023/09/08 03:29:09;;;;;;;7.90;6.70;;;20.00;99.90;;;;;;4995225;28;20204;-84
2023/09/08 03:31:36;;;;;;;7.18;6.50;;;19.80;99.90;;;;;;5005908;28;20224;-83
2023/09/08 03:34:04;;;;;;;6.68;6.18;;;19.70;1.00;;;;;;5014544;28;20204;-83
2023/09/08 03:36:35;;;;;;;7.22;6.40;;;19.70;99.90;;;;;;5032605;28;20204;-84
2023/09/08 03:39:03;;;;;;;7.70;6.70;;;19.50;99.90;;;;;;5010940;28;20199;-83
2023/09/08 03:41:31;;;;;;;6.85;6.25;;;19.50;99.90;;;;;;5012681;28;20216;-84
2023/09/08 03:44:00;;;;;;;6.78;6.18;;;19.40;22.90;;;;;;5002525;28;20205;-83
2023/09/08 03:46:27;;;;;;;7.22;6.47;;;19.30;93.80;;;;;;5015910;28;20235;-84
2023/09/08 03:49:00;;;;;;;7.88;7.18;;;19.30;99.90;;;;;;5015009;28;20204;-84
2023/09/08 03:51:28;;;;;;;7.95;6.90;;;19.30;99.90;;;;;;5004033;28;20251;-83
2023/09/08 03:53:56;;;;;;;7.32;6.63;;;19.30;99.90;;;;;;5006149;28;20193;-83
2023/09/08 03:56:24;;;;;;;7.88;7.00;;;19.20;1.00;;;;;;5005483;28;20195;-84
2023/09/08 03:58:51;;;;;;;7.60;6.90;;;19.20;99.90;;;;;;5014255;28;20196;-83
2023/09/08 04:01:20;;;;;;;8.13;7.32;;;19.10;99.90;;;;;;5032936;28;20226;-83
2023/09/08 04:03:48;;;;;;;8.43;7.30;;;19.00;99.90;;;;;;5017605;28;20210;-84
2023/09/08 04:06:16;;;;;;;7.95;7.15;;;19.10;1.00;;;;;;5009247;28;20211;-84
2023/09/08 04:08:44;;;;;;;11.27;7.50;;;19.30;1.00;;;;;;5018429;28;20199;-84
2023/09/08 04:11:11;;;;;;;7.75;7.00;;;19.70;1.00;;;;;;5029558;28;20239;-84
2023/09/08 04:13:39;;;;;;;7.35;6.65;;;19.80;99.90;;;;;;5036003;28;20649;-83
2023/09/08 04:16:06;;;;;;;8.35;7.35;;;19.90;99.90;;;;;;5019887;28;20207;-83
2023/09/08 04:18:35;;;;;;;7.78;6.97;;;20.00;81.00;;;;;;5019159;28;20200;-84
2023/09/08 04:21:03;;;;;;;8.18;7.40;;;19.90;1.00;;;;;;5018799;28;20216;-84
2023/09/08 04:23:30;;;;;;;8.82;6.78;;;20.00;97.40;;;;;;5015558;28;20203;-84
2023/09/08 04:25:58;;;;;;;6.95;6.35;;;20.20;1.00;;;;;;5014308;28;20204;-83
2023/09/08 04:28:25;;;;;;;7.38;6.68;;;20.20;1.00;;;;;;5002740;28;20235;-84
2023/09/08 04:30:53;;;;;;;7.57;6.93;;;20.20;1.00;;;;;;5009983;28;20219;-84
2023/09/08 04:33:20;;;;;;;7.97;7.00;;;20.20;1.00;;;;;;5018846;28;20552;-84
2023/09/08 04:35:49;;;;;;;8.02;7.20;;;20.10;1.00;;;;;;5002925;28;20200;-84
2023/09/08 04:38:16;;;;;;;9.23;7.22;;;20.00;1.00;;;;;;5007952;28;20212;-84
2023/09/08 04:40:46;;;;;;;8.18;7.18;;;20.10;37.20;;;;;;4996810;28;20231;-83
2023/09/08 04:43:13;;;;;;;7.85;7.05;;;20.10;9.80;;;;;;5004063;28;20203;-84
2023/09/08 04:45:41;;;;;;;8.85;7.25;;;20.10;2.50;;;;;;5012338;28;20208;-84
2023/09/08 04:48:10;;;;;;;9.77;8.02;;;20.10;1.00;;;;;;5015783;28;20235;-84
2023/09/08 04:50:40;;;;;;;8.30;7.15;;;20.10;27.70;;;;;;4997974;28;20221;-84
2023/09/08 04:53:09;;;;;;;8.65;7.20;;;20.10;1.00;;;;;;5005202;28;20203;-83
2023/09/08 04:55:36;;;;;;;12.10;10.68;;;20.10;1.00;;;;;;5018135;28;20192;-84
2023/09/08 04:58:05;;;;;;;11.80;9.77;;;20.20;1.00;;;;;;5011055;28;20192;-84
2023/09/08 05:00:33;;;;;;;10.30;8.32;;;20.10;1.00;;;;;;5029273;28;20677;-84
2023/09/08 05:03:01;;;;;;;8.35;6.80;;;20.10;1.00;;;;;;4999437;28;20280;-84
2023/09/08 05:05:28;;;;;;;8.18;7.40;;;20.00;1.00;;;;;;5006603;28;20200;-84
2023/09/08 05:07:56;;;;;;;7.63;6.93;;;20.00;1.00;;;;;;5006308;28;20227;-84
2023/09/08 05:10:25;;;;;;;7.57;6.88;;;20.10;1.00;;;;;;4998568;28;20216;-83
2023/09/08 05:12:53;;;;;;;7.72;6.80;;;20.10;1.00;;;;;;5024996;28;20204;-84
2023/09/08 05:15:21;;;;;;;8.25;6.88;;;20.10;1.00;;;;;;5010106;28;20701;-84
2023/09/08 05:17:53;;;;;;;8.52;7.30;;;20.10;1.00;;;;;;5018981;28;20197;-84
2023/09/08 05:20:21;;;;;;;12.68;7.78;;;20.00;1.00;;;;;;5007196;28;20230;-83
2023/09/08 05:22:49;;;;;;;8.80;7.43;;;20.10;1.00;;;;;;5022787;28;20557;-84
2023/09/08 05:25:16;;;;;;;7.43;6.60;;;20.00;1.00;;;;;;5009635;28;20204;-84
2023/09/08 05:27:46;;;;;;;9.93;7.88;;;20.10;1.00;;;;;;5002754;28;20223;-84
2023/09/08 05:30:14;;;;;;;9.18;7.50;;;19.90;1.00;;;;;;4997340;28;20197;-84
2023/09/08 05:32:42;;;;;;;8.88;7.43;;;19.90;1.00;;;;;;5014093;28;20203;-84
2023/09/08 05:35:10;;;;;;;8.00;7.10;;;19.80;1.00;;;;;;5019479;28;20197;-84
2023/09/08 05:37:38;;;;;;;8.77;7.47;;;19.70;1.00;;;;;;5004206;28;20195;-84
2023/09/08 05:40:07;;;;;;;9.25;7.50;;;19.80;1.00;;;;;;5001210;28;20204;-84
2023/09/08 05:42:34;;;;;;;8.00;6.93;;;20.00;1.00;;;;;;4994376;28;20210;-83
2023/09/08 05:45:03;;;;;;;9.10;7.60;;;20.10;1.00;;;;;;4999906;28;20200;-84
2023/09/08 05:47:31;;;;;;;8.38;7.07;;;20.20;1.00;;;;;;4987283;28;20228;-84
2023/09/08 05:49:59;;;;;;;8.63;7.80;;;20.10;1.00;;;;;;4991819;28;20197;-84
2023/09/08 05:52:28;;;;;;;9.38;8.38;;;20.10;1.00;;;;;;4987208;28;20584;-84
2023/09/08 05:54:55;;;;;;;7.38;6.68;;;20.20;1.00;;;;;;4993195;28;20200;-84
2023/09/08 05:57:23;;;;;;;8.75;6.93;;;20.40;1.00;;;;;;4996265;28;20215;-84
2023/09/08 05:59:50;;;;;;;7.45;6.75;;;20.40;99.90;;;;;;5010100;28;20211;-83
2023/09/08 06:02:19;;;;;;;11.27;6.68;;;20.50;99.90;;;;;;5021278;28;20220;-84
2023/09/08 06:04:47;;;;;;;9.18;7.10;;;20.60;99.90;;;;;;4993423;28;20296;-84
2023/09/08 06:07:15;;;;;;;14.27;10.88;;;20.60;1.00;;;;;;4992516;28;20215;-84
2023/09/08 06:09:42;;;;;;;15.18;9.27;;;20.60;1.00;;;;;;4991158;28;20204;-84
2023/09/08 06:12:11;;;;;;;16.40;10.85;;;20.60;1.00;;;;;;5001317;28;20231;-84
2023/09/08 06:14:38;;;;;;;10.10;8.23;;;20.60;99.90;;;;;;5006012;28;20192;-84
2023/09/08 06:17:06;;;;;;;10.48;7.43;;;20.60;99.90;;;;;;5003441;28;20205;-84
2023/09/08 06:19:35;;;;;;;13.05;7.78;;;20.70;99.90;;;;;;5017255;28;20200;-84
2023/09/08 06:22:02;;;;;;;8.80;7.07;;;20.70;99.90;;;;;;5002274;28;20231;-84
2023/09/08 06:24:30;;;;;;;11.52;7.47;;;20.70;99.90;;;;;;4995249;28;20200;-84
2023/09/08 06:26:58;;;;;;;10.13;6.70;;;20.80;99.90;;;;;;4989717;28;20664;-84
2023/09/08 06:29:26;;;;;;;9.43;6.70;;;20.90;99.90;;;;;;4999852;28;20691;-84
2023/09/08 06:31:53;;;;;;;10.70;7.07;;;21.10;99.90;;;;;;5003570;28;20239;-84
2023/09/08 06:34:22;;;;;;;14.35;7.10;;;21.30;51.10;;;;;;4985158;28;20216;-84
2023/09/08 06:36:51;;;;;;;13.57;7.22;;;21.40;1.00;;;;;;4991365;28;20201;-84
2023/09/08 06:39:19;;;;;;;10.35;6.82;;;21.40;33.20;;;;;;4992804;28;20208;-84
2023/09/08 06:41:47;;;;;;;11.25;6.97;;;21.40;1.00;;;;;;5001989;28;20224;-84
2023/09/08 06:44:16;;;;;;;11.25;6.95;;;21.40;1.00;;;;;;5009828;28;20212;-84
2023/09/08 06:46:44;;;;;;;10.45;6.50;;;21.50;74.20;;;;;;5004263;28;20196;-84
2023/09/08 06:49:11;;;;;;;8.93;6.53;;;21.70;1.00;;;;;;4999190;28;20231;-84
2023/09/08 06:51:39;;;;;;;7.63;6.15;;;21.80;1.00;;;;;;4991262;28;20225;-84
2023/09/08 06:54:08;;;;;;;9.05;6.65;;;21.70;1.00;;;;;;5007058;28;20204;-84
2023/09/08 06:56:39;;;;;;;12.15;6.93;;;21.80;1.00;;;;;;5006539;28;20196;-84
2023/09/08 06:59:08;;;;;;;14.27;7.20;;;22.00;1.00;;;;;;5001559;28;20192;-84
2023/09/08 07:01:37;;;;;;;10.27;6.93;;;22.10;1.00;;;;;;5025573;28;20228;-84
2023/09/08 07:04:05;;;;;;;13.30;7.10;;;22.20;1.00;;;;;;5007952;28;20209;-84
2023/09/08 07:06:33;;;;;;;14.23;7.53;;;22.10;1.00;;;;;;4994212;28;20202;-84
2023/09/08 07:09:02;;;;;;;8.85;6.53;;;22.20;1.00;;;;;;5014453;28;20239;-84
2023/09/08 07:11:32;;;;;;;10.15;6.22;;;22.20;1.00;;;;;;5000619;28;20304;-84
2023/09/08 07:13:59;;;;;;;6.47;5.40;;;22.20;1.00;;;;;;5001315;28;20552;-84
2023/09/08 07:16:27;;;;;;;6.50;5.90;;;22.30;1.00;;;;;;5018380;28;20205;-85
2023/09/08 07:18:54;;;;;;;8.45;6.22;;;22.20;1.00;;;;;;5032892;28;20191;-84
2023/09/08 07:21:22;;;;;;;10.68;6.47;;;22.30;1.00;;;;;;5020627;28;20224;-84
2023/09/08 07:23:49;;;;;;;8.23;6.82;;;22.40;1.00;;;;;;5029446;28;20196;-84
2023/09/08 07:26:17;;;;;;;7.55;5.75;;;22.40;1.00;;;;;;5014901;28;20214;-84
2023/09/08 07:28:47;;;;;;;9.65;6.95;;;22.50;1.00;;;;;;5011622;28;20231;-84
2023/09/08 07:31:16;;;;;;;9.18;6.43;;;22.60;1.00;;;;;;5039247;28;20259;-84
2023/09/08 07:33:46;;;;;;;7.15;6.40;;;22.60;1.00;;;;;;5013425;28;20196;-84
2023/09/08 07:36:14;;;;;;;6.72;6.13;;;22.70;1.00;;;;;;5036748;28;20204;-84
2023/09/08 07:38:43;;;;;;;6.22;5.63;;;22.70;1.00;;;;;;5018674;28;20199;-84
2023/09/08 07:41:13;;;;;;;6.28;5.65;;;22.90;1.00;;;;;;5019049;28;20216;-84
2023/09/08 07:43:40;;;;;;;5.90;5.28;;;22.90;99.90;;;;;;5003283;28;20208;-84
2023/09/08 07:46:12;;;;;;;7.15;5.40;;;23.00;1.00;;;;;;5025555;23;20216;-79
2023/09/08 07:48:39;;;;;;;6.50;5.63;;;23.10;99.90;;;;;;4992424;28;20216;-79
2023/09/08 07:51:06;;;;;;;7.00;5.88;;;23.20;99.90;;;;;;4991950;28;20588;-79
2023/09/08 07:53:34;;;;;;;6.35;5.75;;;23.20;1.00;;;;;;4993408;28;20193;-79
2023/09/08 07:56:02;;;;;;;7.65;6.05;;;23.30;99.90;;;;;;4992322;28;20228;-79
2023/09/08 07:58:29;;;;;;;7.80;6.00;;;23.30;99.90;;;;;;4989910;28;20196;-79
2023/09/08 08:00:56;;;;;;;6.22;5.63;;;23.40;99.90;;;;;;4992864;28;20199;-79
2023/09/08 08:03:25;;;;;;;6.40;5.43;;;23.50;99.90;;;;;;4991839;28;20200;-79
2023/09/08 08:05:53;;;;;;;6.65;5.63;;;23.60;99.90;;;;;;4991227;28;20231;-79
2023/09/08 08:08:20;;;;;;;6.10;5.50;;;23.60;99.90;;;;;;4992773;28;20208;-79
2023/09/08 08:10:47;;;;;;;6.63;5.95;;;23.70;99.90;;;;;;4991933;28;20211;-79
2023/09/08 08:13:15;;;;;;;6.28;5.53;;;23.80;99.90;;;;;;5001699;28;20201;-79
2023/09/08 08:15:43;;;;;;;8.85;5.95;;;23.90;99.90;;;;;;4991908;28;20231;-79
2023/09/08 08:18:10;;;;;;;7.35;6.47;;;23.90;99.90;;;;;;4992709;28;20200;-79
2023/09/08 08:20:40;;;;;;;6.82;6.13;;;24.00;99.90;;;;;;4992234;28;20208;-79
2023/09/08 08:23:08;;;;;;;5.85;5.28;;;24.00;99.90;;;;;;4991732;28;20197;-79
2023/09/08 08:25:35;;;;;;;6.53;5.88;;;24.10;99.90;;;;;;4991436;28;20220;-79
2023/09/08 08:28:03;;;;;;;7.45;5.32;;;24.10;99.90;;;;;;4992997;28;20204;-79
2023/09/08 08:30:32;;;;;;;11.20;5.90;;;24.10;1.00;;;;;;4991139;28;20221;-79
2023/09/08 08:32:59;;;;;;;6.15;5.55;;;24.10;1.00;;;;;;4995251;28;20207;-79
2023/09/08 08:35:27;;;;;;;6.22;5.63;;;24.10;99.90;;;;;;5006781;28;20220;-79
2023/09/08 08:37:55;;;;;;;6.13;5.45;;;24.10;99.90;;;;;;5003508;28;20541;-81
2023/09/08 08:40:26;;;;;;;8.75;5.60;;;24.30;99.90;;;;;;4984285;28;20235;-81
2023/09/08 08:42:56;;;;;;;7.38;5.40;;;24.40;99.90;;;;;;4993991;28;20193;-81
2023/09/08 08:45:25;;;;;;;6.75;5.35;;;24.40;99.90;;;;;;4998820;28;20243;-81
2023/09/08 08:47:54;;;;;;;5.90;5.40;;;24.50;99.90;;;;;;4993413;28;20209;-81
2023/09/08 08:50:21;;;;;;;6.15;5.55;;;24.70;99.90;;;;;;5014390;28;20223;-81
2023/09/08 08:52:49;;;;;;;8.43;5.97;;;24.50;99.90;;;;;;5000443;28;20200;-81
2023/09/08 08:55:18;;;;;;;8.00;5.68;;;24.60;99.90;;;;;;4998998;28;20231;-81
2023/09/08 08:57:47;;;;;;;7.55;5.40;;;24.70;99.90;;;;;;4995974;28;20200;-81
2023/09/08 09:00:18;;;;;;;6.13;5.53;;;24.70;1.00;;;;;;5009694;28;20196;-81
2023/09/08 09:02:48;;;;;;;6.10;5.50;;;24.90;99.90;;;;;;4988500;28;20203;-81
2023/09/08 09:05:16;;;;;;;5.45;4.95;;;25.00;99.90;;;;;;4996448;28;20224;-80
2023/09/08 09:07:44;;;;;;;5.72;5.22;;;25.00;99.90;;;;;;4991916;28;20197;-80
2023/09/08 09:10:12;;;;;;;6.47;5.85;;;25.10;99.90;;;;;;5003704;28;20235;-81
2023/09/08 09:12:41;;;;;;;9.95;6.13;;;25.20;1.00;;;;;;5005325;28;20196;-81
2023/09/08 09:15:09;;;;;;;8.38;5.60;;;25.30;99.90;;;;;;4988983;28;20227;-80
2023/09/08 09:17:37;;;;;;;6.47;5.07;;;25.20;99.90;;;;;;4997941;28;20193;-81
2023/09/08 09:20:14;;;;;;;6.25;5.65;;;25.20;99.90;;;;;;4995963;28;20193;-81
2023/09/08 09:22:49;;;;;;;12.43;5.93;;;25.30;99.90;;;;;;4982099;28;20192;-81
2023/09/08 09:25:24;;;;;;;8.55;5.53;;;25.20;99.90;;;;;;4995361;28;20235;-81
2023/09/08 09:27:55;;;;;;;8.13;5.88;;;25.30;99.90;;;;;;4996067;28;20202;-81
2023/09/08 09:30:23;;;;;;;8.75;5.80;;;25.30;99.90;;;;;;4997053;28;20667;-81
2023/09/08 09:33:00;;;;;;;7.25;5.35;;;25.50;99.90;;;;;;4995277;28;20200;-81
2023/09/08 09:35:41;;;;;;;7.47;5.53;;;25.60;99.90;;;;;;4994969;28;20689;-81
2023/09/08 09:38:09;;;;;;;6.78;5.63;;;25.70;99.90;;;;;;4995756;28;20213;-81
2023/09/08 09:40:36;;;;;;;7.47;5.47;;;25.80;99.90;;;;;;4995748;28;20192;-81
2023/09/08 09:43:07;;;;;;;6.15;5.63;;;26.00;99.90;;;;;;4995680;28;20196;-81
2023/09/08 09:45:35;;;;;;;6.05;4.78;;;26.00;99.90;;;;;;4994526;28;20727;-81
2023/09/08 09:48:05;;;;;;;6.22;5.50;;;26.00;99.90;;;;;;4997275;28;20199;-81
2023/09/08 09:50:34;;;;;;;5.53;5.00;;;26.20;99.90;;;;;;4996069;28;20220;-81
2023/09/08 09:53:02;;;;;;;6.47;5.75;;;26.20;99.90;;;;;;4990265;28;20204;-81
2023/09/08 09:55:30;;;;;;;5.75;5.15;;;26.40;99.90;;;;;;4995456;28;20712;-81
2023/09/08 09:58:00;;;;;;;5.65;5.03;;;26.40;99.90;;;;;;4994264;28;20204;-81
2023/09/08 10:00:29;;;;;;;6.43;4.97;;;26.50;99.90;;;;;;4995082;28;20200;-81
2023/09/08 10:02:57;;;;;;;5.80;4.70;;;26.60;99.90;;;;;;4986057;28;20208;-81
2023/09/08 10:05:25;;;;;;;5.25;4.65;;;26.70;99.90;;;;;;4992822;28;20229;-81
2023/09/08 10:07:56;;;;;;;6.22;5.00;;;26.80;99.90;;;;;;4996482;28;20188;-81
2023/09/08 10:10:28;;;;;;;6.75;4.75;;;26.90;99.90;;;;;;4994181;28;20212;-81
2023/09/08 10:12:58;;;;;;;4.55;4.15;;;26.90;99.90;;;;;;5007318;28;20196;-81
2023/09/08 10:15:26;;;;;;;6.90;5.15;;;27.00;1.00;;;;;;4990934;28;20227;-81
2023/09/08 10:17:57;;;;;;;4.45;4.15;;;27.10;1.00;;;;;;4994732;28;20207;-81
2023/09/08 10:20:25;;;;;;;4.75;4.35;;;27.10;1.00;;;;;;4994120;28;20197;-80
2023/09/08 10:22:55;;;;;;;4.50;4.10;;;27.20;1.00;;;;;;5011736;28;20201;-81
2023/09/08 10:25:26;;;;;;;5.20;4.70;;;27.30;99.90;;;;;;4986703;28;20232;-81
2023/09/08 10:27:54;;;;;;;4.72;4.22;;;27.50;99.90;;;;;;5005789;28;20212;-81
2023/09/08 10:30:22;;;;;;;6.43;4.53;;;27.60;1.00;;;;;;4991731;28;20220;-81
2023/09/08 10:32:51;;;;;;;5.38;4.47;;;27.50;99.90;;;;;;5010072;28;20200;-81
2023/09/08 10:35:20;;;;;;;4.90;4.35;;;27.60;99.90;;;;;;4995966;28;20231;-81
2023/09/08 10:37:47;;;;;;;5.15;4.65;;;27.60;1.00;;;;;;4994745;28;20200;-81
2023/09/08 10:40:23;;;;;;;5.05;4.50;;;27.70;1.00;;;;;;4993585;28;20565;-81
2023/09/08 10:43:06;;;;;;;4.93;4.45;;;27.90;1.00;;;;;;5006450;28;20207;-81
2023/09/08 10:45:33;;;;;;;5.85;4.60;;;27.80;1.00;;;;;;4994454;28;20239;-81
2023/09/08 10:48:01;;;;;;;5.18;4.72;;;27.70;1.00;;;;;;4995230;28;20203;-81
2023/09/08 10:50:33;;;;;;;5.18;4.22;;;27.80;1.00;;;;;;5009230;28;20216;-81
2023/09/08 10:53:10;;;;;;;5.32;4.85;;;28.00;1.00;;;;;;4996497;28;20204;-81
2023/09/08 10:55:47;;;;;;;4.70;4.30;;;28.10;1.00;;;;;;4992586;28;20228;-81
2023/09/08 10:58:22;;;;;;;5.00;4.60;;;28.20;1.00;;;;;;4987139;28;20201;-81
2023/09/08 11:00:54;;;;;;;5.13;4.70;;;28.20;1.00;;;;;;4996609;28;20646;-81
2023/09/08 11:03:43;;;;;;;5.28;4.78;;;28.40;1.00;;;;;;4993160;28;20211;-81
2023/09/08 11:06:13;;;;;;;5.38;4.88;;;28.50;99.90;;;;;;4998302;28;20585;-81
2023/09/08 11:08:43;;;;;;;5.40;4.90;;;28.50;99.90;;;;;;4993686;28;20475;-81
2023/09/08 11:11:12;;;;;;;4.65;4.25;;;28.40;1.00;;;;;;4993585;28;20216;-81
2023/09/08 11:13:45;;;;;;;5.07;4.60;;;28.40;1.00;;;;;;4993474;28;20200;-81
2023/09/08 11:16:14;;;;;;;4.93;4.18;;;28.60;99.90;;;;;;4993654;28;20220;-81
2023/09/08 11:18:42;;;;;;;4.90;4.50;;;28.70;99.90;;;;;;4994047;28;20196;-81
2023/09/08 11:21:10;;;;;;;5.15;4.65;;;28.70;1.00;;;;;;4993557;28;20197;-81
2023/09/08 11:23:40;;;;;;;4.50;4.10;;;28.70;1.00;;;;;;5009357;28;20559;-81
2023/09/08 11:26:08;;;;;;;4.47;4.07;;;28.80;1.00;;;;;;4995089;28;20212;-81
2023/09/08 11:28:36;;;;;;;5.05;4.57;;;28.90;49.20;;;;;;4993364;28;20689;-81
2023/09/08 11:31:04;;;;;;;5.20;4.63;;;28.90;99.90;;;;;;4993170;28;20246;-81
2023/09/08 11:33:39;;;;;;;4.63;4.25;;;29.10;99.90;;;;;;4993141;28;20208;-81
2023/09/08 11:36:14;;;;;;;5.22;4.40;;;29.10;1.00;;;;;;4988299;28;20236;-81
2023/09/08 11:38:45;;;;;;;4.75;4.35;;;29.10;1.00;;;;;;4993814;28;20203;-81
2023/09/08 11:41:13;;;;;;;4.55;4.15;;;29.10;1.00;;;;;;5001749;28;20193;-81
2023/09/08 11:43:40;;;;;;;5.28;4.63;;;29.30;99.90;;;;;;5009528;28;20201;-81
2023/09/08 11:46:10;;;;;;;4.90;4.45;;;29.30;95.70;;;;;;4992980;28;20592;-81
2023/09/08 11:48:38;;;;;;;4.53;4.13;;;29.40;1.00;;;;;;4994454;28;20526;-81
2023/09/08 11:51:08;;;;;;;5.13;4.65;;;29.50;99.90;;;;;;4992329;28;20220;-81
2023/09/08 11:53:39;;;;;;;4.45;4.00;;;29.60;99.90;;;;;;4992424;28;20204;-81
2023/09/08 11:56:08;;;;;;;5.65;3.88;;;29.60;91.60;;;;;;5010121;28;20223;-81
2023/09/08 11:58:40;;;;;;;5.07;4.40;;;29.70;1.00;;;;;;5006154;28;20208;-81
2023/09/08 12:01:14;;;;;;;5.68;4.97;;;29.80;26.40;;;;;;4986856;28;20197;-81
2023/09/08 12:03:52;;;;;;;4.82;4.32;;;29.90;1.00;;;;;;4993827;28;20193;-81
2023/09/08 12:06:20;;;;;;;5.03;4.57;;;30.00;1.00;;;;;;5005935;28;20238;-81
2023/09/08 12:08:47;;;;;;;6.00;4.68;;;30.10;1.00;;;;;;4993494;28;20674;-82
2023/09/08 12:11:16;;;;;;;4.97;4.28;;;30.30;99.90;;;;;;4989592;28;20585;-79
2023/09/08 12:13:44;;;;;;;5.20;4.70;;;30.50;10.20;;;;;;5000347;28;20192;-79
2023/09/08 12:16:22;;;;;;;4.85;4.45;;;30.40;1.00;;;;;;5008379;28;20220;-79
2023/09/08 12:18:50;;;;;;;5.90;4.60;;;30.80;99.90;;;;;;4992364;28;20208;-79
2023/09/08 12:21:20;;;;;;;4.72;4.32;;;30.80;1.00;;;;;;5010355;28;20207;-79
2023/09/08 12:23:52;;;;;;;4.80;4.40;;;30.70;1.00;;;;;;4995592;28;20211;-79
2023/09/08 12:26:22;;;;;;;5.43;4.60;;;30.60;1.00;;;;;;4995896;28;20224;-79
2023/09/08 12:28:49;;;;;;;5.13;4.50;;;30.60;1.00;;;;;;5005907;28;20200;-79
2023/09/08 12:31:18;;;;;;;4.93;4.53;;;30.60;1.00;;;;;;5009913;28;20216;-79
2023/09/08 12:33:47;;;;;;;4.85;4.40;;;30.80;99.90;;;;;;5002697;28;20200;-79
2023/09/08 12:36:18;;;;;;;5.40;4.90;;;31.10;1.00;;;;;;5005994;28;20221;-79
2023/09/08 12:38:48;;;;;;;4.82;4.28;;;31.40;99.90;;;;;;4991737;28;20567;-79
2023/09/08 12:41:18;;;;;;;5.63;4.70;;;31.40;99.90;;;;;;4991561;28;20195;-79
2023/09/08 12:43:50;;;;;;;5.45;4.93;;;31.40;1.00;;;;;;4996428;28;20536;-79
2023/09/08 12:46:18;;;;;;;6.32;4.88;;;31.10;1.00;;;;;;5004921;28;20605;-79
2023/09/08 12:48:46;;;;;;;5.38;4.82;;;31.50;1.00;;;;;;4993233;28;20201;-79
2023/09/08 12:51:13;;;;;;;4.90;4.40;;;31.50;1.00;;;;;;4990508;28;20216;-79
2023/09/08 12:53:41;;;;;;;5.70;4.68;;;31.40;1.00;;;;;;4995688;28;20204;-80
2023/09/08 12:56:08;;;;;;;4.97;4.57;;;31.30;1.00;;;;;;4997626;28;20224;-79
2023/09/08 12:58:35;;;;;;;4.40;4.03;;;31.70;1.00;;;;;;4992380;28;20694;-79